aviador You're here:

YPPD Decoded Metar

PORT HEDLAND in AUSTRALIA
Report Time2018-05-28 05:00:00
UTC Time2018-05-28 05:14:43
Flight Rules vfr VFR
Wind100° at 15 kt
W.Decomp.*RWY 14: 11.3 kt HW 9.8 kt LCW
RWY 18: 2.3 kt HW 14.8 kt LCW
W.Rank100° ranks 23
Current wind is above 100° avg. (11.7)
Visibility9999 m
Phenomena:N/A
Clouds:N/A
Expected CloudBase > 10,800 ft AGL from Temp-Dew spread
CeilingNone
Temp30°C (ISA +15)
Dew Point03°C (18% RH)
Heat Index28.2°C
AAT23.1°C
QNH1015 hPa
Density Alt1,785 ft
Elevation20 ft
Report Wrong Elevation
Raw Report
METAR YPPD 280500Z AUTO 10015KT 9999 // NCD 30/03 Q1015=

Extra information for YPPD:More info

Metar Taf Metar & Taf Last 4 Metars F.Rules Stats Wind Profile Meteogram Temp Stats Airport Information Weather charts Add Link Nearby VenuesMetar ALERT Operation Metar Decoded Social comments